Terminal Aerodrome Forecast
Issued by NWS

Home | Current Version | Previous Version | Text Only | Print | Product List | Glossary On
Versions: 1 2 3 4 5 6 7 8 9 10 11 12 13 14 15 16 17 18 19 20 21 22
000
FTAK31 PAJN 260100 AAA
TAFAKT
TAF AMD
PAKT 260158Z 2602/2624 16005KT P6SM VCSH SCT010 SCT020 BKN035
     FM260300 VRB05KT P6SM FEW015 BKN035 OVC050
     FM260600 31005KT P6SM SCT050 SCT100
     FM261800 33007KT P6SM SCT100
      AMD LTD TO CLD VIS AND WIND 2606/2615=

USA.gov is the U.S. government's official web portal to all federal, state and local government web resources and services.